Burlington, Kentucky
Current Conditions -  °F | °C
As of 5:52 PM on Saturday 25 Oct 2014 (Local Time) from KCVG Reporting Station
Few Clouds Few Clouds  
Wind Chill: 72°   Ceiling: Unl
Heat Index: 72°   Visibility: 10mi
Dew Point: 51°   Wind: 10mph
Humidity: 48%   Direction: 270°W
Pressure: 29.93"   Gusts: NA
Location:  39.03°N, 84.72°W
Report Text: KCVG 252152Z 27009KT 10SM FEW250 22/11 A2993 RMK AO2 SLP129 T02220106
Loading
Personal Weather Stations






























Interactive Weather Map
Tropical Storm Tracking
New forecast layout! Learn more

10-Day Weather Forecast

Advertisements
Track Severe Weather on mobile